createdAt,value
2024-05-09T00:09:02.511Z,19.05
2024-05-09T00:19:05.330Z,20.05
2024-05-09T00:29:09.115Z,17.35
2024-05-09T00:39:11.674Z,20.45
2024-05-09T00:49:14.631Z,20.10
2024-05-09T00:59:17.718Z,19.75
2024-05-09T01:09:20.315Z,21.13
2024-05-09T01:19:30.208Z,18.60
2024-05-09T01:29:32.904Z,21.23
2024-05-09T01:39:35.666Z,18.98
2024-05-09T01:49:40.231Z,18.17
2024-05-09T01:59:42.810Z,15.75
2024-05-09T02:09:45.304Z,20.65
2024-05-09T02:19:47.947Z,19.40
2024-05-09T02:29:50.578Z,16.75
2024-05-09T02:39:53.139Z,18.17
2024-05-09T02:49:56.508Z,19.10
2024-05-09T02:59:59.082Z,18.55
2024-05-09T03:10:01.834Z,18.90
2024-05-09T03:20:06.991Z,16.17
2024-05-09T03:30:15.580Z,16.85
2024-05-09T03:40:28.924Z,16.67
2024-05-09T03:50:35.694Z,19.35
2024-05-09T04:00:40.345Z,16.83
2024-05-09T04:10:43.293Z,16.58
2024-05-09T04:20:46.448Z,20.45
2024-05-09T04:30:49.614Z,17.35
2024-05-09T04:40:52.204Z,17.55
2024-05-09T04:50:55.037Z,16.98
2024-05-09T05:00:57.665Z,17.00
2024-05-09T05:11:00.475Z,16.42
2024-05-09T05:21:03.139Z,11.45
2024-05-09T05:31:05.857Z,12.00
2024-05-09T05:41:09.441Z,10.93
2024-05-09T05:51:12.447Z,11.60
2024-05-09T06:01:15.188Z,11.65
2024-05-09T06:11:18.009Z,12.23
2024-05-09T06:21:20.614Z,11.73
2024-05-09T06:31:24.264Z,11.98
2024-05-09T06:41:26.971Z,10.32
2024-05-09T06:51:29.606Z,10.43
2024-05-09T07:01:32.503Z,9.20
2024-05-09T07:11:35.322Z,9.20
2024-05-09T07:21:38.038Z,8.82
2024-05-09T07:31:40.692Z,8.02
2024-05-09T07:41:43.254Z,7.15
2024-05-09T07:53:17.359Z,8.13
2024-05-09T08:02:08.671Z,8.35
2024-05-09T08:12:13.158Z,7.38
2024-05-09T08:22:16.004Z,7.22
2024-05-09T08:32:18.775Z,6.75
2024-05-09T08:42:23.368Z,6.07
2024-05-09T08:52:26.434Z,6.45
2024-05-09T09:02:29.061Z,6.68
2024-05-09T09:12:32.089Z,5.32
2024-05-09T09:22:35.190Z,6.80
2024-05-09T09:32:37.925Z,4.47
2024-05-09T09:42:42.928Z,5.45
2024-05-09T09:52:46.262Z,5.57
2024-05-09T10:02:49.150Z,3.70
2024-05-09T10:12:56.881Z,3.35
2024-05-09T10:22:59.377Z,5.10
2024-05-09T10:33:02.124Z,4.93
2024-05-09T10:43:06.486Z,3.15
2024-05-09T10:53:09.184Z,3.60
2024-05-09T11:03:11.946Z,5.07
2024-05-09T11:13:14.952Z,6.00
2024-05-09T11:23:18.546Z,3.55
2024-05-09T11:33:21.922Z,3.90
2024-05-09T11:43:24.559Z,3.10
2024-05-09T11:53:27.252Z,2.72
2024-05-09T12:03:30.244Z,3.28
2024-05-09T12:13:33.127Z,2.67
2024-05-09T12:23:36.048Z,3.97
2024-05-09T12:33:38.878Z,4.13
2024-05-09T12:43:41.570Z,4.72
2024-05-09T12:53:44.584Z,2.45
2024-05-09T13:03:47.303Z,6.03
2024-05-09T13:13:49.936Z,4.18
2024-05-09T13:23:52.437Z,2.90
2024-05-09T13:33:55.195Z,3.75
2024-05-09T13:43:57.896Z,5.18
2024-05-09T13:54:00.584Z,2.95
2024-05-09T14:04:03.371Z,5.00
2024-05-09T14:14:06.030Z,3.42
2024-05-09T14:24:08.592Z,2.63
2024-05-09T14:34:11.591Z,2.95
2024-05-09T14:44:14.351Z,4.22
2024-05-09T14:54:17.407Z,3.67
2024-05-09T15:04:20.206Z,3.47
2024-05-09T15:14:23.004Z,3.58
2024-05-09T15:24:25.570Z,3.05
2024-05-09T15:34:29.617Z,3.67
2024-05-09T15:44:32.225Z,3.45
2024-05-09T15:54:35.102Z,3.90
2024-05-09T16:04:37.925Z,4.72
2024-05-09T16:14:41.146Z,6.13
2024-05-09T16:24:43.770Z,4.05
2024-05-09T16:34:46.373Z,3.13
2024-05-09T16:44:48.911Z,4.32
2024-05-09T16:54:52.395Z,2.92
2024-05-09T17:04:55.110Z,5.22
2024-05-09T17:15:03.245Z,3.83
2024-05-09T17:25:11.702Z,3.35
2024-05-09T17:35:26.459Z,3.40
2024-05-09T17:45:32.914Z,3.20
2024-05-09T17:55:41.819Z,5.15
2024-05-09T18:05:45.212Z,3.10
2024-05-09T18:15:57.496Z,3.58
2024-05-09T18:26:02.847Z,4.63
2024-05-09T18:36:07.864Z,7.50
2024-05-09T18:46:33.294Z,9.60
2024-05-09T18:56:37.607Z,7.15
2024-05-09T19:06:40.360Z,5.18
2024-05-09T19:16:43.446Z,4.50
2024-05-09T19:26:46.423Z,6.18
2024-05-09T19:36:49.786Z,7.53
2024-05-09T19:46:52.533Z,7.90
2024-05-09T19:56:56.555Z,10.60
2024-05-09T20:06:59.546Z,8.75
2024-05-09T20:17:02.395Z,6.35
2024-05-09T20:27:05.396Z,8.80
2024-05-09T20:37:09.200Z,10.75
2024-05-09T20:47:18.675Z,8.75
2024-05-09T20:57:27.475Z,10.35
2024-05-09T21:07:30.047Z,6.68
2024-05-09T21:17:32.813Z,10.32
2024-05-09T21:27:36.548Z,7.35
2024-05-09T21:37:41.549Z,8.68
2024-05-09T21:47:44.373Z,8.68
2024-05-09T21:57:47.343Z,9.48
2024-05-09T22:07:49.958Z,7.63
2024-05-09T22:17:52.681Z,8.45
2024-05-09T22:27:59.718Z,9.05
2024-05-09T22:38:07.647Z,9.57
2024-05-09T22:48:10.545Z,8.48
2024-05-09T22:58:17.728Z,6.63
2024-05-09T23:08:20.875Z,7.88
2024-05-09T23:18:24.778Z,6.75
2024-05-09T23:28:28.077Z,8.68
2024-05-09T23:38:30.775Z,9.02
2024-05-09T23:48:33.946Z,10.27
2024-05-09T23:58:36.970Z,6.53
